createdAt,value
2023-02-15T00:00:48.306Z,0.60
2023-02-15T00:03:17.941Z,0.20
2023-02-15T00:05:46.086Z,0.40
2023-02-15T00:08:15.076Z,0.90
2023-02-15T00:10:43.453Z,0.90
2023-02-15T00:13:12.350Z,0.50
2023-02-15T00:15:41.844Z,1.30
2023-02-15T00:18:12.780Z,0.20
2023-02-15T00:20:41.017Z,0.50
2023-02-15T00:23:09.608Z,0.30
2023-02-15T00:25:38.727Z,1.10
2023-02-15T00:28:06.988Z,0.80
2023-02-15T00:30:36.658Z,0.30
2023-02-15T00:33:05.009Z,0.70
2023-02-15T00:35:35.614Z,1.20
2023-02-15T00:38:03.988Z,0.50
2023-02-15T00:40:32.263Z,0.70
2023-02-15T00:43:01.256Z,0.10
2023-02-15T00:45:29.529Z,0.80
2023-02-15T00:47:58.229Z,0.20
2023-02-15T00:50:27.009Z,0.20
2023-02-15T00:52:55.783Z,0.20
2023-02-15T00:55:23.947Z,0.30
2023-02-15T00:57:52.840Z,0.90
2023-02-15T01:00:21.229Z,0.40
2023-02-15T01:02:49.417Z,1.20
2023-02-15T01:05:17.748Z,0.70
2023-02-15T01:07:48.197Z,0.30
2023-02-15T01:10:17.274Z,0.80
2023-02-15T01:12:46.080Z,2.10
2023-02-15T01:15:14.212Z,1.00
2023-02-15T01:17:42.679Z,0.30
2023-02-15T01:20:11.495Z,0.20
2023-02-15T01:22:40.613Z,0.50
2023-02-15T01:25:09.506Z,0.20
2023-02-15T01:27:37.978Z,0.50
2023-02-15T01:30:12.291Z,0.60
2023-02-15T01:32:41.490Z,0.30
2023-02-15T01:35:11.711Z,0.20
2023-02-15T01:37:40.633Z,0.50
2023-02-15T01:40:13.503Z,0.30
2023-02-15T01:42:41.960Z,1.10
2023-02-15T01:45:45.474Z,0.40
2023-02-15T01:48:24.591Z,0.10
2023-02-15T01:51:01.054Z,0.40
2023-02-15T01:53:33.631Z,0.80
2023-02-15T01:56:07.591Z,0.90
2023-02-15T01:58:35.722Z,0.80
2023-02-15T02:01:05.054Z,0.90
2023-02-15T02:03:42.336Z,0.60
2023-02-15T02:06:13.014Z,0.30
2023-02-15T02:08:42.814Z,0.90
2023-02-15T02:11:14.789Z,0.20
2023-02-15T02:13:43.758Z,0.80
2023-02-15T02:16:24.100Z,0.40
2023-02-15T02:19:23.834Z,1.10
2023-02-15T02:22:17.112Z,0.80
2023-02-15T02:24:54.188Z,0.20
2023-02-15T02:27:34.339Z,0.10
2023-02-15T02:30:31.688Z,0.50
2023-02-15T02:33:19.017Z,0.50
2023-02-15T02:36:06.029Z,0.50
2023-02-15T02:39:03.924Z,0.20
2023-02-15T02:41:41.217Z,0.40
2023-02-15T02:44:19.451Z,0.60
2023-02-15T02:47:32.924Z,0.60
2023-02-15T02:50:03.256Z,0.40
2023-02-15T02:52:34.713Z,0.20
2023-02-15T02:55:05.027Z,0.80
2023-02-15T02:57:33.774Z,0.80
2023-02-15T03:00:04.062Z,0.60
2023-02-15T03:02:38.831Z,0.50
2023-02-15T03:05:09.912Z,0.60
2023-02-15T03:07:38.269Z,0.30
2023-02-15T03:10:07.774Z,0.80
2023-02-15T03:12:37.531Z,0.20
2023-02-15T03:15:14.302Z,0.20
2023-02-15T03:17:45.707Z,0.40
2023-02-15T03:20:15.213Z,0.60
2023-02-15T03:22:47.537Z,0.20
2023-02-15T03:25:23.879Z,0.10
2023-02-15T03:28:04.818Z,0.10
2023-02-15T03:30:33.083Z,0.40
2023-02-15T03:33:01.570Z,0.30
2023-02-15T03:36:02.617Z,0.20
2023-02-15T03:38:37.801Z,0.30
2023-02-15T03:41:11.887Z,0.40
2023-02-15T03:43:59.347Z,0.40
2023-02-15T03:46:34.702Z,0.10
2023-02-15T03:49:09.826Z,0.70
2023-02-15T03:51:39.766Z,0.60
2023-02-15T03:54:10.358Z,0.40
2023-02-15T03:56:40.309Z,1.10
2023-02-15T03:59:27.420Z,0.50
2023-02-15T04:02:20.683Z,0.30
2023-02-15T04:04:49.263Z,1.00
2023-02-15T04:07:17.434Z,0.80
2023-02-15T04:10:04.558Z,1.40
2023-02-15T04:12:32.929Z,1.10
2023-02-15T04:15:20.073Z,0.90
2023-02-15T04:17:49.782Z,1.10
2023-02-15T04:20:37.012Z,0.50
2023-02-15T04:23:26.335Z,0.20
2023-02-15T04:25:54.612Z,0.70
2023-02-15T04:28:22.867Z,0.20
2023-02-15T04:30:51.067Z,0.70
2023-02-15T04:33:20.041Z,0.80
2023-02-15T04:35:48.266Z,0.50
2023-02-15T04:38:18.540Z,1.30
2023-02-15T04:40:51.564Z,0.70
2023-02-15T04:43:20.411Z,0.50
2023-02-15T04:45:51.511Z,1.10
2023-02-15T04:48:19.710Z,0.30
2023-02-15T04:50:47.897Z,0.40
2023-02-15T04:53:18.525Z,0.70
2023-02-15T04:55:46.626Z,0.70
2023-02-15T04:58:15.172Z,0.80
2023-02-15T05:00:44.094Z,1.30
2023-02-15T05:03:12.745Z,1.20
2023-02-15T05:05:41.740Z,0.30
2023-02-15T05:08:09.907Z,0.90
2023-02-15T05:10:38.119Z,0.40
2023-02-15T05:13:06.566Z,0.80
2023-02-15T05:15:35.704Z,1.20
2023-02-15T05:18:04.540Z,1.70
2023-02-15T05:20:33.122Z,1.10
2023-02-15T05:23:01.265Z,0.50
2023-02-15T05:25:48.561Z,0.60
2023-02-15T05:28:20.534Z,0.50
2023-02-15T05:30:53.484Z,0.70
2023-02-15T05:33:21.916Z,0.20
2023-02-15T05:35:50.317Z,0.40
2023-02-15T05:38:19.415Z,0.80
2023-02-15T05:40:50.073Z,0.90
2023-02-15T05:43:19.189Z,0.80
2023-02-15T05:45:52.341Z,0.60
2023-02-15T05:48:21.321Z,0.30
2023-02-15T05:51:01.858Z,0.40
2023-02-15T05:53:31.911Z,0.60
2023-02-15T05:56:01.663Z,0.60
2023-02-15T05:58:32.712Z,0.60
2023-02-15T06:01:01.019Z,0.50
2023-02-15T06:03:29.974Z,0.50
2023-02-15T06:05:58.287Z,1.40
2023-02-15T06:08:26.663Z,0.40
2023-02-15T06:10:54.822Z,0.10
2023-02-15T06:13:25.273Z,1.70
2023-02-15T06:15:53.555Z,0.40
2023-02-15T06:18:23.043Z,0.80
2023-02-15T06:20:51.311Z,0.90
2023-02-15T06:23:19.914Z,0.60
2023-02-15T06:25:48.576Z,0.30
2023-02-15T06:28:16.961Z,0.20
2023-02-15T06:30:45.313Z,1.20
2023-02-15T06:33:15.755Z,0.40
2023-02-15T06:35:44.337Z,0.70
2023-02-15T06:38:12.581Z,0.50
2023-02-15T06:40:41.359Z,2.70
2023-02-15T06:43:10.163Z,0.70
2023-02-15T06:45:38.259Z,0.30
2023-02-15T06:48:09.332Z,0.60
2023-02-15T06:50:38.007Z,1.50
2023-02-15T06:53:12.155Z,1.80
2023-02-15T06:55:40.520Z,2.10
2023-02-15T06:58:08.620Z,0.80
2023-02-15T07:00:37.312Z,0.80
2023-02-15T07:03:05.893Z,3.10
2023-02-15T07:05:35.913Z,2.60
2023-02-15T07:08:04.319Z,2.10
2023-02-15T07:10:33.108Z,2.70
2023-02-15T07:13:01.779Z,7.30
2023-02-15T07:15:33.205Z,4.70
2023-02-15T07:18:01.472Z,2.80
2023-02-15T07:20:30.842Z,6.10
2023-02-15T07:22:59.187Z,5.80
2023-02-15T07:25:27.716Z,4.00
2023-02-15T07:27:59.510Z,3.50
2023-02-15T07:30:29.877Z,3.00
2023-02-15T07:33:17.876Z,3.00
2023-02-15T07:35:54.572Z,1.50
2023-02-15T07:38:22.845Z,3.50
2023-02-15T07:40:51.033Z,1.10
2023-02-15T07:43:19.363Z,1.90
2023-02-15T07:45:47.617Z,1.90
2023-02-15T07:48:16.292Z,1.50
2023-02-15T07:50:44.783Z,3.10
2023-02-15T07:53:13.900Z,1.30
2023-02-15T07:55:42.145Z,0.90
2023-02-15T07:58:11.851Z,0.90
2023-02-15T08:00:59.384Z,0.70
2023-02-15T08:03:30.342Z,1.60
2023-02-15T08:06:01.421Z,0.40
2023-02-15T08:08:32.940Z,1.10
2023-02-15T08:11:24.527Z,0.20
2023-02-15T08:13:57.553Z,1.70
2023-02-15T08:16:39.118Z,3.60
2023-02-15T08:19:12.939Z,0.20
2023-02-15T08:21:47.113Z,1.70
2023-02-15T08:24:16.978Z,0.60
2023-02-15T08:26:48.897Z,1.30
2023-02-15T08:29:20.041Z,0.80
2023-02-15T08:31:48.561Z,1.20
2023-02-15T08:34:18.245Z,0.70
2023-02-15T08:36:46.888Z,1.30
2023-02-15T08:39:15.674Z,2.00
2023-02-15T08:41:45.149Z,4.00
2023-02-15T08:44:14.085Z,3.20
2023-02-15T08:46:46.653Z,2.50
2023-02-15T08:49:19.135Z,1.30
2023-02-15T08:51:50.904Z,2.80
2023-02-15T08:54:21.268Z,1.20
2023-02-15T08:56:49.774Z,1.30
2023-02-15T08:59:22.698Z,0.80
2023-02-15T09:01:52.097Z,0.70
2023-02-15T09:04:21.168Z,0.30
2023-02-15T09:06:49.948Z,0.90
2023-02-15T09:09:24.334Z,0.60
2023-02-15T09:11:59.491Z,1.40
2023-02-15T09:14:30.249Z,1.10
2023-02-15T09:17:00.968Z,0.80
2023-02-15T09:19:29.958Z,0.40
2023-02-15T09:22:00.210Z,0.90
2023-02-15T09:24:29.068Z,1.80
2023-02-15T09:27:00.777Z,0.80
2023-02-15T09:29:29.394Z,0.80
2023-02-15T09:31:58.111Z,1.70
2023-02-15T09:34:26.565Z,0.70
2023-02-15T09:36:54.916Z,0.60
2023-02-15T09:39:30.196Z,0.70
2023-02-15T09:42:25.179Z,1.50
2023-02-15T09:45:04.940Z,0.40
2023-02-15T09:47:42.780Z,0.30
2023-02-15T09:50:50.919Z,1.90
2023-02-15T09:53:28.015Z,1.40
2023-02-15T09:56:21.579Z,0.60
2023-02-15T09:58:56.847Z,0.30
2023-02-15T10:01:51.237Z,0.30
2023-02-15T10:04:57.215Z,0.50
2023-02-15T10:07:38.648Z,0.80
2023-02-15T10:10:24.240Z,0.50
2023-02-15T10:13:06.429Z,0.40
2023-02-15T10:15:53.299Z,0.40
2023-02-15T10:18:48.238Z,0.40
2023-02-15T10:21:41.499Z,0.40
2023-02-15T10:24:23.794Z,0.60
2023-02-15T10:26:51.973Z,0.10
2023-02-15T10:29:47.699Z,1.20
2023-02-15T10:32:24.566Z,0.80
2023-02-15T10:34:55.867Z,1.30
2023-02-15T10:37:34.205Z,0.60
2023-02-15T10:40:34.550Z,0.40
2023-02-15T10:43:23.224Z,0.20
2023-02-15T10:46:03.685Z,0.60
2023-02-15T10:48:36.029Z,0.20
2023-02-15T10:51:05.538Z,1.10
2023-02-15T10:53:53.160Z,0.50
2023-02-15T10:56:46.792Z,1.10
2023-02-15T10:59:32.169Z,1.00
2023-02-15T11:04:55.398Z,0.70
2023-02-15T11:07:24.946Z,1.80
2023-02-15T11:10:17.482Z,0.70
2023-02-15T11:12:47.396Z,0.40
2023-02-15T11:15:37.661Z,0.90
2023-02-15T11:18:22.860Z,1.10
2023-02-15T11:21:05.622Z,1.10
2023-02-15T11:23:33.833Z,0.60
2023-02-15T11:26:04.947Z,1.60
2023-02-15T11:28:42.228Z,0.80
2023-02-15T11:31:25.494Z,0.60
2023-02-15T11:33:59.788Z,1.70
2023-02-15T11:36:36.040Z,0.60
2023-02-15T11:39:10.213Z,0.80
2023-02-15T11:44:13.706Z,0.20
2023-02-15T11:46:42.719Z,1.00
2023-02-15T11:49:31.601Z,1.20
2023-02-15T11:52:02.299Z,0.30
2023-02-15T11:54:33.435Z,0.60
2023-02-15T11:57:34.990Z,1.80
2023-02-15T12:00:08.697Z,0.60
2023-02-15T12:02:38.211Z,1.50
2023-02-15T12:05:16.059Z,2.10
2023-02-15T12:07:46.317Z,1.60
2023-02-15T12:10:36.232Z,0.50
2023-02-15T12:13:19.585Z,0.90
2023-02-15T12:15:50.170Z,0.60
2023-02-15T12:18:38.019Z,0.90
2023-02-15T12:21:15.456Z,0.80
2023-02-15T12:23:53.652Z,0.70
2023-02-15T12:26:30.263Z,0.60
2023-02-15T12:29:28.852Z,1.50
2023-02-15T12:31:57.939Z,1.00
2023-02-15T12:34:32.089Z,1.10
2023-02-15T12:37:18.413Z,0.40
2023-02-15T12:39:54.742Z,0.90
2023-02-15T12:42:23.224Z,0.50
2023-02-15T12:48:22.002Z,1.00
2023-02-15T12:50:55.011Z,1.60
2023-02-15T12:53:36.965Z,0.50
2023-02-15T12:56:07.357Z,0.70
2023-02-15T12:58:39.261Z,0.70
2023-02-15T13:01:22.521Z,1.40
2023-02-15T13:03:59.862Z,0.50
2023-02-15T13:06:29.168Z,0.60
2023-02-15T13:09:19.623Z,0.70
2023-02-15T13:11:48.342Z,0.70
2023-02-15T13:14:31.670Z,2.10
2023-02-15T13:17:02.611Z,0.90
2023-02-15T13:19:37.578Z,2.10
2023-02-15T13:22:25.640Z,0.40
2023-02-15T13:25:02.678Z,1.70
2023-02-15T13:27:39.942Z,0.60
2023-02-15T13:30:33.924Z,0.50
2023-02-15T13:33:07.483Z,1.80
2023-02-15T13:35:59.248Z,1.20
2023-02-15T13:38:48.446Z,0.80
2023-02-15T13:41:19.897Z,0.20
2023-02-15T13:44:28.608Z,1.30
2023-02-15T13:47:19.198Z,1.10
2023-02-15T13:49:51.651Z,2.40
2023-02-15T13:52:21.365Z,2.10
2023-02-15T13:55:01.917Z,1.40
2023-02-15T13:57:58.866Z,1.60
2023-02-15T14:00:57.771Z,1.90
2023-02-15T14:04:01.411Z,0.90
2023-02-15T14:06:37.420Z,1.20
2023-02-15T14:09:33.634Z,1.40
2023-02-15T14:12:26.252Z,0.60
2023-02-15T14:15:30.172Z,1.80
2023-02-15T14:18:19.554Z,0.50
2023-02-15T14:21:12.208Z,0.40
2023-02-15T14:24:14.787Z,1.40
2023-02-15T14:26:54.226Z,1.10
2023-02-15T14:29:35.708Z,1.40
2023-02-15T14:32:43.197Z,1.10
2023-02-15T14:35:16.745Z,1.30
2023-02-15T14:38:21.729Z,1.70
2023-02-15T14:41:26.868Z,1.80
2023-02-15T14:44:16.172Z,1.60
2023-02-15T14:47:32.209Z,2.40
2023-02-15T14:50:00.692Z,1.10
2023-02-15T14:52:30.855Z,1.20
2023-02-15T14:54:59.420Z,1.10
2023-02-15T14:57:31.990Z,1.00
2023-02-15T15:00:08.075Z,1.00
2023-02-15T15:02:52.266Z,1.90
2023-02-15T15:05:36.269Z,1.40
2023-02-15T15:08:05.584Z,0.80
2023-02-15T15:10:42.761Z,0.90
2023-02-15T15:13:33.123Z,1.50
2023-02-15T15:16:37.230Z,0.60
2023-02-15T15:19:07.421Z,1.30
2023-02-15T15:21:51.312Z,0.50
2023-02-15T15:24:37.845Z,0.70
2023-02-15T15:27:44.876Z,1.30
2023-02-15T15:30:16.453Z,1.00
2023-02-15T15:32:54.706Z,1.40
2023-02-15T15:35:57.418Z,2.00
2023-02-15T15:38:34.589Z,0.90
2023-02-15T15:41:03.276Z,1.70
2023-02-15T15:43:45.369Z,1.40
2023-02-15T15:46:32.697Z,1.10
2023-02-15T15:49:10.186Z,3.20
2023-02-15T15:51:41.132Z,2.30
2023-02-15T15:54:25.729Z,1.70
2023-02-15T15:57:02.560Z,1.60
2023-02-15T15:59:34.805Z,0.90
2023-02-15T16:02:07.262Z,1.70
2023-02-15T16:04:36.696Z,2.20
2023-02-15T16:07:17.536Z,1.50
2023-02-15T16:10:02.631Z,1.60
2023-02-15T16:15:17.381Z,0.90
2023-02-15T16:17:47.482Z,1.40
2023-02-15T16:20:23.519Z,1.70
2023-02-15T16:23:16.506Z,0.50
2023-02-15T16:25:55.028Z,1.20
2023-02-15T16:28:23.417Z,0.60
2023-02-15T16:31:07.560Z,0.50
2023-02-15T16:36:41.102Z,1.70
2023-02-15T16:39:19.968Z,1.60
2023-02-15T16:41:48.388Z,2.60
2023-02-15T16:44:19.307Z,1.50
2023-02-15T16:46:52.144Z,1.60
2023-02-15T16:49:22.735Z,1.00
2023-02-15T16:51:59.125Z,1.70
2023-02-15T16:54:28.709Z,1.30
2023-02-15T16:56:57.401Z,1.70
2023-02-15T16:59:34.074Z,1.80
2023-02-15T17:02:05.880Z,1.20
2023-02-15T17:04:37.051Z,1.60
2023-02-15T17:07:09.783Z,0.90
2023-02-15T17:09:38.323Z,1.20
2023-02-15T17:12:10.689Z,1.10
2023-02-15T17:14:41.114Z,1.70
2023-02-15T17:17:16.175Z,0.80
2023-02-15T17:19:53.615Z,2.40
2023-02-15T17:22:28.043Z,1.90
2023-02-15T17:25:01.148Z,2.60
2023-02-15T17:27:34.283Z,1.10
2023-02-15T17:30:24.671Z,1.90
2023-02-15T17:33:02.436Z,1.10
2023-02-15T17:35:34.780Z,1.20
2023-02-15T17:38:04.596Z,2.40
2023-02-15T17:40:39.094Z,2.00
2023-02-15T17:43:07.694Z,1.10
2023-02-15T17:45:44.145Z,1.20
2023-02-15T17:48:21.348Z,0.70
2023-02-15T17:50:50.035Z,0.70
2023-02-15T17:53:19.538Z,1.50
2023-02-15T17:55:49.405Z,1.20
2023-02-15T17:58:19.778Z,0.90
2023-02-15T18:01:12.783Z,1.00
2023-02-15T18:04:10.541Z,1.10
2023-02-15T18:07:00.597Z,1.40
2023-02-15T18:09:47.604Z,2.00
2023-02-15T18:12:23.849Z,2.10
2023-02-15T18:14:56.962Z,2.30
2023-02-15T18:17:41.516Z,1.60
2023-02-15T18:20:33.431Z,0.70
2023-02-15T18:23:02.426Z,2.40
2023-02-15T18:25:31.000Z,2.10
2023-02-15T18:27:59.138Z,1.20
2023-02-15T18:30:27.810Z,1.30
2023-02-15T18:33:02.982Z,1.60
2023-02-15T18:35:32.294Z,1.80
2023-02-15T18:38:03.232Z,1.70
2023-02-15T18:40:32.099Z,2.10
2023-02-15T18:43:00.375Z,1.50
2023-02-15T18:45:33.637Z,1.70
2023-02-15T18:48:02.043Z,1.80
2023-02-15T18:50:34.781Z,1.90
2023-02-15T18:53:06.745Z,2.10
2023-02-15T18:55:35.877Z,1.80
2023-02-15T18:58:04.228Z,0.80
2023-02-15T19:00:35.099Z,1.80
2023-02-15T19:03:06.793Z,1.00
2023-02-15T19:05:35.632Z,1.70
2023-02-15T19:08:04.041Z,0.80
2023-02-15T19:10:33.002Z,2.30
2023-02-15T19:13:01.598Z,1.40
2023-02-15T19:15:34.572Z,1.50
2023-02-15T19:18:04.998Z,1.50
2023-02-15T19:20:41.363Z,1.70
2023-02-15T19:23:15.674Z,1.50
2023-02-15T19:25:44.368Z,1.00
2023-02-15T19:28:19.902Z,3.10
2023-02-15T19:30:51.516Z,0.80
2023-02-15T19:33:21.062Z,0.50
2023-02-15T19:35:57.576Z,1.50
2023-02-15T19:38:29.371Z,1.00
2023-02-15T19:41:01.347Z,1.00
2023-02-15T19:43:30.440Z,2.80
2023-02-15T19:45:58.774Z,1.40
2023-02-15T19:48:27.191Z,1.40
2023-02-15T19:50:57.207Z,1.30
2023-02-15T19:53:26.823Z,2.10
2023-02-15T19:55:55.604Z,1.20
2023-02-15T19:58:24.691Z,1.70
2023-02-15T20:00:53.380Z,2.20
2023-02-15T20:03:22.685Z,1.50
2023-02-15T20:05:51.260Z,1.40
2023-02-15T20:08:21.988Z,1.20
2023-02-15T20:10:51.801Z,2.50
2023-02-15T20:13:23.392Z,2.30
2023-02-15T20:15:54.722Z,2.00
2023-02-15T20:18:23.281Z,1.90
2023-02-15T20:20:54.933Z,0.90
2023-02-15T20:23:36.934Z,3.00
2023-02-15T20:26:15.393Z,1.20
2023-02-15T20:28:45.249Z,1.90
2023-02-15T20:31:17.061Z,2.50
2023-02-15T20:33:45.485Z,2.40
2023-02-15T20:36:19.698Z,2.50
2023-02-15T20:38:48.177Z,2.80
2023-02-15T20:41:37.037Z,3.00
2023-02-15T20:44:29.258Z,1.20
2023-02-15T20:46:58.502Z,2.10
2023-02-15T20:49:27.597Z,3.10
2023-02-15T20:51:56.365Z,1.30
2023-02-15T20:54:26.669Z,2.50
2023-02-15T20:56:55.093Z,2.00
2023-02-15T20:59:32.132Z,2.30
2023-02-15T21:02:16.627Z,2.10
2023-02-15T21:04:44.956Z,3.00
2023-02-15T21:07:20.262Z,2.00
2023-02-15T21:09:49.000Z,1.30
2023-02-15T21:12:19.199Z,2.10
2023-02-15T21:14:48.908Z,2.80
2023-02-15T21:17:17.487Z,3.60
2023-02-15T21:19:46.352Z,1.80
2023-02-15T21:22:15.693Z,2.60
2023-02-15T21:24:51.157Z,1.90
2023-02-15T21:27:19.913Z,1.80
2023-02-15T21:29:48.387Z,2.30
2023-02-15T21:32:17.129Z,2.70
2023-02-15T21:34:45.546Z,1.90
2023-02-15T21:37:28.430Z,1.80
2023-02-15T21:39:56.751Z,3.50
2023-02-15T21:42:43.889Z,2.40
2023-02-15T21:45:37.589Z,2.10
2023-02-15T21:48:06.515Z,1.80
2023-02-15T21:50:53.835Z,1.80
2023-02-15T21:53:32.137Z,0.70
2023-02-15T21:56:03.004Z,2.60
2023-02-15T21:58:33.194Z,1.60
2023-02-15T22:01:02.626Z,1.90
2023-02-15T22:03:33.382Z,1.10
2023-02-15T22:06:01.866Z,2.90
2023-02-15T22:08:30.208Z,2.90
2023-02-15T22:11:01.595Z,2.30
2023-02-15T22:13:31.913Z,2.30
2023-02-15T22:16:00.399Z,1.80
2023-02-15T22:18:33.405Z,2.40
2023-02-15T22:21:02.869Z,2.30
2023-02-15T22:23:32.320Z,2.20
2023-02-15T22:26:09.405Z,1.40
2023-02-15T22:28:38.802Z,2.70
2023-02-15T22:31:11.027Z,1.90
2023-02-15T22:33:39.284Z,2.90
2023-02-15T22:36:15.810Z,3.10
2023-02-15T22:38:45.604Z,2.80
2023-02-15T22:41:13.894Z,3.10
2023-02-15T22:43:44.626Z,3.90
2023-02-15T22:46:21.356Z,3.50
2023-02-15T22:48:49.993Z,2.90
2023-02-15T22:51:20.176Z,2.70
2023-02-15T22:53:52.499Z,3.20
2023-02-15T22:56:34.873Z,2.30
2023-02-15T22:59:07.859Z,2.80
2023-02-15T23:01:36.593Z,2.00
2023-02-15T23:04:04.990Z,2.30
2023-02-15T23:06:34.495Z,4.50
2023-02-15T23:09:03.007Z,4.00
2023-02-15T23:11:31.689Z,3.00
2023-02-15T23:14:03.244Z,1.90
2023-02-15T23:16:32.059Z,1.90
2023-02-15T23:19:00.176Z,4.30
2023-02-15T23:21:30.420Z,4.30
2023-02-15T23:24:10.465Z,2.90
2023-02-15T23:26:38.857Z,4.30
2023-02-15T23:29:12.694Z,3.70
2023-02-15T23:31:43.226Z,5.20
2023-02-15T23:34:27.669Z,3.70
2023-02-15T23:36:56.146Z,3.50
2023-02-15T23:39:46.293Z,4.00
2023-02-15T23:42:18.779Z,3.20
2023-02-15T23:44:48.614Z,6.00
2023-02-15T23:47:21.249Z,7.50
2023-02-15T23:49:49.439Z,9.20
2023-02-15T23:52:17.611Z,7.70
2023-02-15T23:54:45.792Z,6.60
2023-02-15T23:57:14.261Z,7.60
2023-02-15T23:59:42.541Z,6.50
